sensor_id;sensor_type;location;lat;lon;timestamp;P1;P2;P0
79141;PMS5003;68550;-26.480;29.234;2023-07-02T00:02:14;76;76;
79141;PMS5003;68550;-26.480;29.234;2023-07-02T00:04:39;80;76;
79141;PMS5003;68550;-26.480;29.234;2023-07-02T00:07:04;71;70;
79141;PMS5003;68550;-26.480;29.234;2023-07-02T00:09:30;79;77;
79141;PMS5003;68550;-26.480;29.234;2023-07-02T00:11:56;70;69;
79141;PMS5003;68550;-26.480;29.234;2023-07-02T00:14:23;72;70;
79141;PMS5003;68550;-26.480;29.234;2023-07-02T00:16:47;71;71;
79141;PMS5003;68550;-26.480;29.234;2023-07-02T00:19:13;70;69;
79141;PMS5003;68550;-26.480;29.234;2023-07-02T00:21:38;71;69;
79141;PMS5003;68550;-26.480;29.234;2023-07-02T00:24:03;67;66;
79141;PMS5003;68550;-26.480;29.234;2023-07-02T00:26:28;72;70;
79141;PMS5003;68550;-26.480;29.234;2023-07-02T00:28:54;75;74;
79141;PMS5003;68550;-26.480;29.234;2023-07-02T00:31:19;75;71;
79141;PMS5003;68550;-26.480;29.234;2023-07-02T00:33:45;67;65;
79141;PMS5003;68550;-26.480;29.234;2023-07-02T00:36:10;65;65;
79141;PMS5003;68550;-26.480;29.234;2023-07-02T00:38:37;73;70;
79141;PMS5003;68550;-26.480;29.234;2023-07-02T00:41:01;70;70;
79141;PMS5003;68550;-26.480;29.234;2023-07-02T00:43:26;67;66;
79141;PMS5003;68550;-26.480;29.234;2023-07-02T00:45:52;67;66;
79141;PMS5003;68550;-26.480;29.234;2023-07-02T00:48:17;69;68;
79141;PMS5003;68550;-26.480;29.234;2023-07-02T00:50:43;68;67;
79141;PMS5003;68550;-26.480;29.234;2023-07-02T00:53:09;68;67;
79141;PMS5003;68550;-26.480;29.234;2023-07-02T00:55:34;72;69;
79141;PMS5003;68550;-26.480;29.234;2023-07-02T00:57:59;69;67;
79141;PMS5003;68550;-26.480;29.234;2023-07-02T01:00:25;61;59;
79141;PMS5003;68550;-26.480;29.234;2023-07-02T01:02:54;69;68;
79141;PMS5003;68550;-26.480;29.234;2023-07-02T01:05:16;58;56;
79141;PMS5003;68550;-26.480;29.234;2023-07-02T01:07:41;59;59;
79141;PMS5003;68550;-26.480;29.234;2023-07-02T01:10:07;65;62;
79141;PMS5003;68550;-26.480;29.234;2023-07-02T01:12:32;56;55;
79141;PMS5003;68550;-26.480;29.234;2023-07-02T01:14:58;63;60;
79141;PMS5003;68550;-26.480;29.234;2023-07-02T01:17:22;59;58;
79141;PMS5003;68550;-26.480;29.234;2023-07-02T01:19:48;58;57;
79141;PMS5003;68550;-26.480;29.234;2023-07-02T01:22:13;56;56;
79141;PMS5003;68550;-26.480;29.234;2023-07-02T01:24:38;57;56;
79141;PMS5003;68550;-26.480;29.234;2023-07-02T01:27:05;63;61;
79141;PMS5003;68550;-26.480;29.234;2023-07-02T01:29:29;63;62;
79141;PMS5003;68550;-26.480;29.234;2023-07-02T01:31:54;62;61;
79141;PMS5003;68550;-26.480;29.234;2023-07-02T01:34:20;56;55;
79141;PMS5003;68550;-26.480;29.234;2023-07-02T01:36:45;58;56;
79141;PMS5003;68550;-26.480;29.234;2023-07-02T01:39:10;60;60;
79141;PMS5003;68550;-26.480;29.234;2023-07-02T01:41:41;58;57;
79141;PMS5003;68550;-26.480;29.234;2023-07-02T01:44:02;58;56;
79141;PMS5003;68550;-26.480;29.234;2023-07-02T01:46:27;63;59;
79141;PMS5003;68550;-26.480;29.234;2023-07-02T01:48:53;57;57;
79141;PMS5003;68550;-26.480;29.234;2023-07-02T01:51:20;55;54;
79141;PMS5003;68550;-26.480;29.234;2023-07-02T01:53:46;63;63;
79141;PMS5003;68550;-26.480;29.234;2023-07-02T01:56:10;61;58;
79141;PMS5003;68550;-26.480;29.234;2023-07-02T01:58:36;60;58;
79141;PMS5003;68550;-26.480;29.234;2023-07-02T02:01:01;55;54;
79141;PMS5003;68550;-26.480;29.234;2023-07-02T02:03:27;56;55;
79141;PMS5003;68550;-26.480;29.234;2023-07-02T02:05:54;56;56;
79141;PMS5003;68550;-26.480;29.234;2023-07-02T02:08:18;58;57;
79141;PMS5003;68550;-26.480;29.234;2023-07-02T02:10:43;58;57;
79141;PMS5003;68550;-26.480;29.234;2023-07-02T02:13:09;54;54;
79141;PMS5003;68550;-26.480;29.234;2023-07-02T02:15:34;64;62;
79141;PMS5003;68550;-26.480;29.234;2023-07-02T02:18:00;61;59;
79141;PMS5003;68550;-26.480;29.234;2023-07-02T02:20:25;54;54;
79141;PMS5003;68550;-26.480;29.234;2023-07-02T02:22:51;54;54;
79141;PMS5003;68550;-26.480;29.234;2023-07-02T02:25:16;56;55;
79141;PMS5003;68550;-26.480;29.234;2023-07-02T02:27:42;57;56;
79141;PMS5003;68550;-26.480;29.234;2023-07-02T02:30:08;58;55;
79141;PMS5003;68550;-26.480;29.234;2023-07-02T02:32:33;63;62;
79141;PMS5003;68550;-26.480;29.234;2023-07-02T02:34:59;63;62;
79141;PMS5003;68550;-26.480;29.234;2023-07-02T02:37:24;55;55;
79141;PMS5003;68550;-26.480;29.234;2023-07-02T02:39:49;53;53;
79141;PMS5003;68550;-26.480;29.234;2023-07-02T02:42:16;59;57;
79141;PMS5003;68550;-26.480;29.234;2023-07-02T02:44:40;58;57;
79141;PMS5003;68550;-26.480;29.234;2023-07-02T02:47:06;60;57;
79141;PMS5003;68550;-26.480;29.234;2023-07-02T02:49:31;60;59;
79141;PMS5003;68550;-26.480;29.234;2023-07-02T02:51:57;58;58;
79141;PMS5003;68550;-26.480;29.234;2023-07-02T02:54:22;56;55;
79141;PMS5003;68550;-26.480;29.234;2023-07-02T02:56:48;58;56;
79141;PMS5003;68550;-26.480;29.234;2023-07-02T02:59:14;55;53;
79141;PMS5003;68550;-26.480;29.234;2023-07-02T03:01:39;61;59;
79141;PMS5003;68550;-26.480;29.234;2023-07-02T03:04:04;57;56;
79141;PMS5003;68550;-26.480;29.234;2023-07-02T03:06:30;54;54;
79141;PMS5003;68550;-26.480;29.234;2023-07-02T03:08:56;62;58;
79141;PMS5003;68550;-26.480;29.234;2023-07-02T03:11:21;60;58;
79141;PMS5003;68550;-26.480;29.234;2023-07-02T03:13:47;62;62;
79141;PMS5003;68550;-26.480;29.234;2023-07-02T03:16:12;67;64;
79141;PMS5003;68550;-26.480;29.234;2023-07-02T03:18:38;64;60;
79141;PMS5003;68550;-26.480;29.234;2023-07-02T03:21:03;63;61;
79141;PMS5003;68550;-26.480;29.234;2023-07-02T03:23:31;66;64;
79141;PMS5003;68550;-26.480;29.234;2023-07-02T03:25:55;62;61;
79141;PMS5003;68550;-26.480;29.234;2023-07-02T03:28:20;64;62;
79141;PMS5003;68550;-26.480;29.234;2023-07-02T03:30:46;62;62;
79141;PMS5003;68550;-26.480;29.234;2023-07-02T03:33:11;59;57;
79141;PMS5003;68550;-26.480;29.234;2023-07-02T03:35:37;60;58;
79141;PMS5003;68550;-26.480;29.234;2023-07-02T03:38:02;59;57;
79141;PMS5003;68550;-26.480;29.234;2023-07-02T03:40:27;60;59;
79141;PMS5003;68550;-26.480;29.234;2023-07-02T03:42:52;50;50;
79141;PMS5003;68550;-26.480;29.234;2023-07-02T03:45:18;57;56;
79141;PMS5003;68550;-26.480;29.234;2023-07-02T03:47:46;57;55;
79141;PMS5003;68550;-26.480;29.234;2023-07-02T03:50:09;53;52;
79141;PMS5003;68550;-26.480;29.234;2023-07-02T03:52:35;58;57;
79141;PMS5003;68550;-26.480;29.234;2023-07-02T03:55:01;62;62;
79141;PMS5003;68550;-26.480;29.234;2023-07-02T03:57:26;59;58;
79141;PMS5003;68550;-26.480;29.234;2023-07-02T03:59:52;56;53;
79141;PMS5003;68550;-26.480;29.234;2023-07-02T04:02:17;65;64;
79141;PMS5003;68550;-26.480;29.234;2023-07-02T04:04:42;59;58;
79141;PMS5003;68550;-26.480;29.234;2023-07-02T04:07:08;56;54;
79141;PMS5003;68550;-26.480;29.234;2023-07-02T04:09:33;54;54;
79141;PMS5003;68550;-26.480;29.234;2023-07-02T04:12:01;58;58;
79141;PMS5003;68550;-26.480;29.234;2023-07-02T04:14:24;62;62;
79141;PMS5003;68550;-26.480;29.234;2023-07-02T04:16:50;61;60;
79141;PMS5003;68550;-26.480;29.234;2023-07-02T04:19:16;61;57;
79141;PMS5003;68550;-26.480;29.234;2023-07-02T04:21:41;67;66;
79141;PMS5003;68550;-26.480;29.234;2023-07-02T04:24:06;55;55;
79141;PMS5003;68550;-26.480;29.234;2023-07-02T04:26:32;59;59;
79141;PMS5003;68550;-26.480;29.234;2023-07-02T04:28:57;66;64;
79141;PMS5003;68550;-26.480;29.234;2023-07-02T04:31:23;62;61;
79141;PMS5003;68550;-26.480;29.234;2023-07-02T04:33:49;66;66;
79141;PMS5003;68550;-26.480;29.234;2023-07-02T04:36:14;67;67;
79141;PMS5003;68550;-26.480;29.234;2023-07-02T04:38:39;66;65;
79141;PMS5003;68550;-26.480;29.234;2023-07-02T04:41:07;67;64;
79141;PMS5003;68550;-26.480;29.234;2023-07-02T04:43:30;68;66;
79141;PMS5003;68550;-26.480;29.234;2023-07-02T04:45:56;67;66;
79141;PMS5003;68550;-26.480;29.234;2023-07-02T04:48:21;78;76;
79141;PMS5003;68550;-26.480;29.234;2023-07-02T04:50:46;70;68;
79141;PMS5003;68550;-26.480;29.234;2023-07-02T04:53:11;73;71;
79141;PMS5003;68550;-26.480;29.234;2023-07-02T04:55:37;70;66;
79141;PMS5003;68550;-26.480;29.234;2023-07-02T04:58:02;77;72;
79141;PMS5003;68550;-26.480;29.234;2023-07-02T05:00:28;77;76;
79141;PMS5003;68550;-26.480;29.234;2023-07-02T05:02:54;70;70;
79141;PMS5003;68550;-26.480;29.234;2023-07-02T05:05:19;74;72;
79141;PMS5003;68550;-26.480;29.234;2023-07-02T05:07:45;72;71;
79141;PMS5003;68550;-26.480;29.234;2023-07-02T05:10:11;71;71;
79141;PMS5003;68550;-26.480;29.234;2023-07-02T05:12:36;76;76;
79141;PMS5003;68550;-26.480;29.234;2023-07-02T05:15:01;69;69;
79141;PMS5003;68550;-26.480;29.234;2023-07-02T05:17:28;77;77;
79141;PMS5003;68550;-26.480;29.234;2023-07-02T05:19:52;75;73;
79141;PMS5003;68550;-26.480;29.234;2023-07-02T05:22:17;74;74;
79141;PMS5003;68550;-26.480;29.234;2023-07-02T05:24:42;73;71;
79141;PMS5003;68550;-26.480;29.234;2023-07-02T05:27:08;74;73;
79141;PMS5003;68550;-26.480;29.234;2023-07-02T05:29:34;73;70;
79141;PMS5003;68550;-26.480;29.234;2023-07-02T05:31:59;68;64;
79141;PMS5003;68550;-26.480;29.234;2023-07-02T05:34:25;77;73;
79141;PMS5003;68550;-26.480;29.234;2023-07-02T05:36:50;68;67;
79141;PMS5003;68550;-26.480;29.234;2023-07-02T05:39:16;77;76;
79141;PMS5003;68550;-26.480;29.234;2023-07-02T05:41:42;77;76;
79141;PMS5003;68550;-26.480;29.234;2023-07-02T05:44:07;76;76;
79141;PMS5003;68550;-26.480;29.234;2023-07-02T05:46:33;75;74;
79141;PMS5003;68550;-26.480;29.234;2023-07-02T05:48:59;85;84;
79141;PMS5003;68550;-26.480;29.234;2023-07-02T05:51:23;74;74;
79141;PMS5003;68550;-26.480;29.234;2023-07-02T05:53:50;87;85;
79141;PMS5003;68550;-26.480;29.234;2023-07-02T05:56:14;88;87;
79141;PMS5003;68550;-26.480;29.234;2023-07-02T05:58:40;82;80;
79141;PMS5003;68550;-26.480;29.234;2023-07-02T06:01:05;84;81;
79141;PMS5003;68550;-26.480;29.234;2023-07-02T06:03:30;78;75;
79141;PMS5003;68550;-26.480;29.234;2023-07-02T06:05:56;83;81;
79141;PMS5003;68550;-26.480;29.234;2023-07-02T06:08:21;77;75;
79141;PMS5003;68550;-26.480;29.234;2023-07-02T06:10:47;78;75;
79141;PMS5003;68550;-26.480;29.234;2023-07-02T06:13:12;79;76;
79141;PMS5003;68550;-26.480;29.234;2023-07-02T06:15:38;82;79;
79141;PMS5003;68550;-26.480;29.234;2023-07-02T06:18:04;85;83;
79141;PMS5003;68550;-26.480;29.234;2023-07-02T06:20:28;82;78;
79141;PMS5003;68550;-26.480;29.234;2023-07-02T06:22:53;79;78;
79141;PMS5003;68550;-26.480;29.234;2023-07-02T06:25:19;76;75;
79141;PMS5003;68550;-26.480;29.234;2023-07-02T06:27:45;79;78;
79141;PMS5003;68550;-26.480;29.234;2023-07-02T06:30:10;85;83;
79141;PMS5003;68550;-26.480;29.234;2023-07-02T06:32:39;80;79;
79141;PMS5003;68550;-26.480;29.234;2023-07-02T06:35:01;80;79;
79141;PMS5003;68550;-26.480;29.234;2023-07-02T06:37:27;84;82;
79141;PMS5003;68550;-26.480;29.234;2023-07-02T06:39:52;85;82;
79141;PMS5003;68550;-26.480;29.234;2023-07-02T06:42:17;81;81;
79141;PMS5003;68550;-26.480;29.234;2023-07-02T06:44:43;91;90;
79141;PMS5003;68550;-26.480;29.234;2023-07-02T06:47:08;86;85;
79141;PMS5003;68550;-26.480;29.234;2023-07-02T06:49:35;84;83;
79141;PMS5003;68550;-26.480;29.234;2023-07-02T06:51:59;88;86;
79141;PMS5003;68550;-26.480;29.234;2023-07-02T06:54:25;92;88;
79141;PMS5003;68550;-26.480;29.234;2023-07-02T06:56:49;89;87;
79141;PMS5003;68550;-26.480;29.234;2023-07-02T06:59:18;88;87;
79141;PMS5003;68550;-26.480;29.234;2023-07-02T07:01:41;85;85;
79141;PMS5003;68550;-26.480;29.234;2023-07-02T07:04:06;90;88;
79141;PMS5003;68550;-26.480;29.234;2023-07-02T07:06:32;88;88;
79141;PMS5003;68550;-26.480;29.234;2023-07-02T07:08:57;87;83;
79141;PMS5003;68550;-26.480;29.234;2023-07-02T07:11:23;90;88;
79141;PMS5003;68550;-26.480;29.234;2023-07-02T07:13:49;94;92;
79141;PMS5003;68550;-26.480;29.234;2023-07-02T07:16:15;86;84;
79141;PMS5003;68550;-26.480;29.234;2023-07-02T07:18:41;92;87;
79141;PMS5003;68550;-26.480;29.234;2023-07-02T07:21:06;86;83;
79141;PMS5003;68550;-26.480;29.234;2023-07-02T07:23:33;87;87;
79141;PMS5003;68550;-26.480;29.234;2023-07-02T07:25:57;81;80;
79141;PMS5003;68550;-26.480;29.234;2023-07-02T07:28:23;85;81;
79141;PMS5003;68550;-26.480;29.234;2023-07-02T07:30:48;81;78;
79141;PMS5003;68550;-26.480;29.234;2023-07-02T07:33:13;80;79;
79141;PMS5003;68550;-26.480;29.234;2023-07-02T07:35:39;80;76;
79141;PMS5003;68550;-26.480;29.234;2023-07-02T07:38:04;86;84;
79141;PMS5003;68550;-26.480;29.234;2023-07-02T07:40:30;83;83;
79141;PMS5003;68550;-26.480;29.234;2023-07-02T07:42:55;80;79;
79141;PMS5003;68550;-26.480;29.234;2023-07-02T07:45:20;86;86;
79141;PMS5003;68550;-26.480;29.234;2023-07-02T07:47:46;77;76;
79141;PMS5003;68550;-26.480;29.234;2023-07-02T07:50:12;87;83;
79141;PMS5003;68550;-26.480;29.234;2023-07-02T07:52:37;78;77;
79141;PMS5003;68550;-26.480;29.234;2023-07-02T07:55:05;72;71;
79141;PMS5003;68550;-26.480;29.234;2023-07-02T07:57:28;83;80;
79141;PMS5003;68550;-26.480;29.234;2023-07-02T07:59:53;78;76;
79141;PMS5003;68550;-26.480;29.234;2023-07-02T08:02:18;71;70;
79141;PMS5003;68550;-26.480;29.234;2023-07-02T08:04:44;79;78;
79141;PMS5003;68550;-26.480;29.234;2023-07-02T08:07:10;77;77;
79141;PMS5003;68550;-26.480;29.234;2023-07-02T08:09:35;81;78;
79141;PMS5003;68550;-26.480;29.234;2023-07-02T08:12:00;84;82;
79141;PMS5003;68550;-26.480;29.234;2023-07-02T08:14:25;76;73;
79141;PMS5003;68550;-26.480;29.234;2023-07-02T08:16:50;68;67;
79141;PMS5003;68550;-26.480;29.234;2023-07-02T08:19:15;73;72;
79141;PMS5003;68550;-26.480;29.234;2023-07-02T08:21:41;75;72;
79141;PMS5003;68550;-26.480;29.234;2023-07-02T08:24:09;75;73;
79141;PMS5003;68550;-26.480;29.234;2023-07-02T08:26:31;70;68;
79141;PMS5003;68550;-26.480;29.234;2023-07-02T08:28:56;72;71;
79141;PMS5003;68550;-26.480;29.234;2023-07-02T08:31:21;66;65;
79141;PMS5003;68550;-26.480;29.234;2023-07-02T08:33:46;67;66;
79141;PMS5003;68550;-26.480;29.234;2023-07-02T08:36:12;66;65;
79141;PMS5003;68550;-26.480;29.234;2023-07-02T08:38:38;61;61;
79141;PMS5003;68550;-26.480;29.234;2023-07-02T08:41:03;71;70;
79141;PMS5003;68550;-26.480;29.234;2023-07-02T08:43:28;68;68;
79141;PMS5003;68550;-26.480;29.234;2023-07-02T08:45:54;67;66;
79141;PMS5003;68550;-26.480;29.234;2023-07-02T08:48:20;66;66;
79141;PMS5003;68550;-26.480;29.234;2023-07-02T08:50:45;64;64;
79141;PMS5003;68550;-26.480;29.234;2023-07-02T08:53:10;69;66;
79141;PMS5003;68550;-26.480;29.234;2023-07-02T08:55:35;63;63;
79141;PMS5003;68550;-26.480;29.234;2023-07-02T08:58:01;69;68;
79141;PMS5003;68550;-26.480;29.234;2023-07-02T09:00:27;63;63;
79141;PMS5003;68550;-26.480;29.234;2023-07-02T09:02:52;65;61;
79141;PMS5003;68550;-26.480;29.234;2023-07-02T09:05:19;63;61;
79141;PMS5003;68550;-26.480;29.234;2023-07-02T09:07:47;67;65;
79141;PMS5003;68550;-26.480;29.234;2023-07-02T09:10:09;59;58;
79141;PMS5003;68550;-26.480;29.234;2023-07-02T09:12:34;56;55;
79141;PMS5003;68550;-26.480;29.234;2023-07-02T09:15:00;56;55;
79141;PMS5003;68550;-26.480;29.234;2023-07-02T09:17:28;59;59;
79141;PMS5003;68550;-26.480;29.234;2023-07-02T09:19:51;58;57;
79141;PMS5003;68550;-26.480;29.234;2023-07-02T09:22:16;50;50;
79141;PMS5003;68550;-26.480;29.234;2023-07-02T09:24:41;59;59;
79141;PMS5003;68550;-26.480;29.234;2023-07-02T09:27:07;55;54;
79141;PMS5003;68550;-26.480;29.234;2023-07-02T09:29:33;53;53;
79141;PMS5003;68550;-26.480;29.234;2023-07-02T09:31:59;50;49;
79141;PMS5003;68550;-26.480;29.234;2023-07-02T09:34:27;55;55;
79141;PMS5003;68550;-26.480;29.234;2023-07-02T09:36:49;56;54;
79141;PMS5003;68550;-26.480;29.234;2023-07-02T09:39:17;53;52;
79141;PMS5003;68550;-26.480;29.234;2023-07-02T09:41:40;55;54;
79141;PMS5003;68550;-26.480;29.234;2023-07-02T09:44:04;54;52;
79141;PMS5003;68550;-26.480;29.234;2023-07-02T09:46:30;52;51;
79141;PMS5003;68550;-26.480;29.234;2023-07-02T09:48:56;49;48;
79141;PMS5003;68550;-26.480;29.234;2023-07-02T09:51:21;58;56;
79141;PMS5003;68550;-26.480;29.234;2023-07-02T09:53:46;54;54;
79141;PMS5003;68550;-26.480;29.234;2023-07-02T09:56:11;45;44;
79141;PMS5003;68550;-26.480;29.234;2023-07-02T09:58:37;46;46;
79141;PMS5003;68550;-26.480;29.234;2023-07-02T10:01:02;51;48;
79141;PMS5003;68550;-26.480;29.234;2023-07-02T10:03:28;50;49;
79141;PMS5003;68550;-26.480;29.234;2023-07-02T10:06:01;47;45;
79141;PMS5003;68550;-26.480;29.234;2023-07-02T10:08:19;51;49;
79141;PMS5003;68550;-26.480;29.234;2023-07-02T10:10:44;48;45;
79141;PMS5003;68550;-26.480;29.234;2023-07-02T10:13:09;55;52;
79141;PMS5003;68550;-26.480;29.234;2023-07-02T10:15:35;47;46;
79141;PMS5003;68550;-26.480;29.234;2023-07-02T10:18:01;46;46;
79141;PMS5003;68550;-26.480;29.234;2023-07-02T10:20:32;45;44;
79141;PMS5003;68550;-26.480;29.234;2023-07-02T10:22:51;44;43;
79141;PMS5003;68550;-26.480;29.234;2023-07-02T10:25:25;39;39;
79141;PMS5003;68550;-26.480;29.234;2023-07-02T10:27:43;45;43;
79141;PMS5003;68550;-26.480;29.234;2023-07-02T10:30:08;42;42;
79141;PMS5003;68550;-26.480;29.234;2023-07-02T10:32:33;38;38;
79141;PMS5003;68550;-26.480;29.234;2023-07-02T10:34:58;41;41;
79141;PMS5003;68550;-26.480;29.234;2023-07-02T10:37:23;40;39;
79141;PMS5003;68550;-26.480;29.234;2023-07-02T10:39:49;39;37;
79141;PMS5003;68550;-26.480;29.234;2023-07-02T10:42:15;44;44;
79141;PMS5003;68550;-26.480;29.234;2023-07-02T10:47:05;43;43;
79141;PMS5003;68550;-26.480;29.234;2023-07-02T10:49:33;41;40;
79141;PMS5003;68550;-26.480;29.234;2023-07-02T10:51:57;41;40;
79141;PMS5003;68550;-26.480;29.234;2023-07-02T10:54:21;41;38;
79141;PMS5003;68550;-26.480;29.234;2023-07-02T10:56:46;45;44;
79141;PMS5003;68550;-26.480;29.234;2023-07-02T10:59:11;43;42;
79141;PMS5003;68550;-26.480;29.234;2023-07-02T11:01:38;42;40;
79141;PMS5003;68550;-26.480;29.234;2023-07-02T11:04:03;44;44;
79141;PMS5003;68550;-26.480;29.234;2023-07-02T11:06:28;52;49;
79141;PMS5003;68550;-26.480;29.234;2023-07-02T11:08:54;55;54;
79141;PMS5003;68550;-26.480;29.234;2023-07-02T11:11:19;55;55;
79141;PMS5003;68550;-26.480;29.234;2023-07-02T11:13:45;107;104;
79141;PMS5003;68550;-26.480;29.234;2023-07-02T11:18:35;430;415;
79141;PMS5003;68550;-26.480;29.234;2023-07-02T11:21:08;527;506;
79141;PMS5003;68550;-26.480;29.234;2023-07-02T11:23:26;497;477;
79141;PMS5003;68550;-26.480;29.234;2023-07-02T11:25:57;478;467;
79141;PMS5003;68550;-26.480;29.234;2023-07-02T11:28:17;422;410;
79141;PMS5003;68550;-26.480;29.234;2023-07-02T11:30:45;401;389;
79141;PMS5003;68550;-26.480;29.234;2023-07-02T11:33:07;383;372;
79141;PMS5003;68550;-26.480;29.234;2023-07-02T11:35:35;384;374;
79141;PMS5003;68550;-26.480;29.234;2023-07-02T11:37:57;375;368;
79141;PMS5003;68550;-26.480;29.234;2023-07-02T11:40:22;384;361;
79141;PMS5003;68550;-26.480;29.234;2023-07-02T11:42:49;368;357;
79141;PMS5003;68550;-26.480;29.234;2023-07-02T11:45:13;351;339;
79141;PMS5003;68550;-26.480;29.234;2023-07-02T11:47:38;353;338;
79141;PMS5003;68550;-26.480;29.234;2023-07-02T11:50:06;349;341;
79141;PMS5003;68550;-26.480;29.234;2023-07-02T11:52:29;334;324;
79141;PMS5003;68550;-26.480;29.234;2023-07-02T11:54:57;333;324;
79141;PMS5003;68550;-26.480;29.234;2023-07-02T11:57:21;327;318;
79141;PMS5003;68550;-26.480;29.234;2023-07-02T11:59:46;321;313;
79141;PMS5003;68550;-26.480;29.234;2023-07-02T12:02:11;325;316;
79141;PMS5003;68550;-26.480;29.234;2023-07-02T12:04:37;323;319;
79141;PMS5003;68550;-26.480;29.234;2023-07-02T12:07:03;311;303;
79141;PMS5003;68550;-26.480;29.234;2023-07-02T12:09:28;305;297;
79141;PMS5003;68550;-26.480;29.234;2023-07-02T12:11:57;296;289;
79141;PMS5003;68550;-26.480;29.234;2023-07-02T12:14:20;296;292;
79141;PMS5003;68550;-26.480;29.234;2023-07-02T12:16:44;292;280;
79141;PMS5003;68550;-26.480;29.234;2023-07-02T12:19:09;293;281;
79141;PMS5003;68550;-26.480;29.234;2023-07-02T12:21:35;278;267;
79141;PMS5003;68550;-26.480;29.234;2023-07-02T12:24:00;292;279;
79141;PMS5003;68550;-26.480;29.234;2023-07-02T12:26:26;284;273;
79141;PMS5003;68550;-26.480;29.234;2023-07-02T12:28:51;275;266;
79141;PMS5003;68550;-26.480;29.234;2023-07-02T12:31:17;261;252;
79141;PMS5003;68550;-26.480;29.234;2023-07-02T12:33:43;264;256;
79141;PMS5003;68550;-26.480;29.234;2023-07-02T12:36:08;260;253;
79141;PMS5003;68550;-26.480;29.234;2023-07-02T12:38:33;260;254;
79141;PMS5003;68550;-26.480;29.234;2023-07-02T12:40:59;253;248;
79141;PMS5003;68550;-26.480;29.234;2023-07-02T12:43:24;253;247;
79141;PMS5003;68550;-26.480;29.234;2023-07-02T12:45:50;249;236;
79141;PMS5003;68550;-26.480;29.234;2023-07-02T12:48:15;251;245;
79141;PMS5003;68550;-26.480;29.234;2023-07-02T12:50:41;244;236;
79141;PMS5003;68550;-26.480;29.234;2023-07-02T12:53:06;239;230;
79141;PMS5003;68550;-26.480;29.234;2023-07-02T12:55:31;228;223;
79141;PMS5003;68550;-26.480;29.234;2023-07-02T12:57:57;222;219;
79141;PMS5003;68550;-26.480;29.234;2023-07-02T13:00:22;226;221;
79141;PMS5003;68550;-26.480;29.234;2023-07-02T13:02:48;213;205;
79141;PMS5003;68550;-26.480;29.234;2023-07-02T13:05:13;225;220;
79141;PMS5003;68550;-26.480;29.234;2023-07-02T13:07:38;200;196;
79141;PMS5003;68550;-26.480;29.234;2023-07-02T13:10:05;208;207;
79141;PMS5003;68550;-26.480;29.234;2023-07-02T13:12:29;209;203;
79141;PMS5003;68550;-26.480;29.234;2023-07-02T13:14:55;208;204;
79141;PMS5003;68550;-26.480;29.234;2023-07-02T13:17:21;192;187;
79141;PMS5003;68550;-26.480;29.234;2023-07-02T13:19:47;189;186;
79141;PMS5003;68550;-26.480;29.234;2023-07-02T13:22:11;206;197;
79141;PMS5003;68550;-26.480;29.234;2023-07-02T13:24:36;194;188;
79141;PMS5003;68550;-26.480;29.234;2023-07-02T13:27:02;192;186;
79141;PMS5003;68550;-26.480;29.234;2023-07-02T13:29:27;193;188;
79141;PMS5003;68550;-26.480;29.234;2023-07-02T13:31:53;193;187;
79141;PMS5003;68550;-26.480;29.234;2023-07-02T13:34:18;183;182;
79141;PMS5003;68550;-26.480;29.234;2023-07-02T13:36:43;191;183;
79141;PMS5003;68550;-26.480;29.234;2023-07-02T13:39:08;192;185;
79141;PMS5003;68550;-26.480;29.234;2023-07-02T13:41:33;185;184;
79141;PMS5003;68550;-26.480;29.234;2023-07-02T13:43:59;177;174;
79141;PMS5003;68550;-26.480;29.234;2023-07-02T13:46:24;183;181;
79141;PMS5003;68550;-26.480;29.234;2023-07-02T13:48:50;165;164;
79141;PMS5003;68550;-26.480;29.234;2023-07-02T13:51:17;173;168;
79141;PMS5003;68550;-26.480;29.234;2023-07-02T13:53:40;171;168;
79141;PMS5003;68550;-26.480;29.234;2023-07-02T13:56:08;172;168;
79141;PMS5003;68550;-26.480;29.234;2023-07-02T14:00:57;166;157;
79141;PMS5003;68550;-26.480;29.234;2023-07-02T14:03:23;167;159;
79141;PMS5003;68550;-26.480;29.234;2023-07-02T14:05:48;160;157;
79141;PMS5003;68550;-26.480;29.234;2023-07-02T14:08:14;162;159;
79141;PMS5003;68550;-26.480;29.234;2023-07-02T14:10:39;149;147;
79141;PMS5003;68550;-26.480;29.234;2023-07-02T14:13:04;147;147;
79141;PMS5003;68550;-26.480;29.234;2023-07-02T14:15:30;154;151;
79141;PMS5003;68550;-26.480;29.234;2023-07-02T14:17:55;195;187;
79141;PMS5003;68550;-26.480;29.234;2023-07-02T14:20:20;216;202;
79141;PMS5003;68550;-26.480;29.234;2023-07-02T14:22:46;214;203;
79141;PMS5003;68550;-26.480;29.234;2023-07-02T14:25:13;232;216;
79141;PMS5003;68550;-26.480;29.234;2023-07-02T14:27:38;233;224;
79141;PMS5003;68550;-26.480;29.234;2023-07-02T14:30:02;242;225;
79141;PMS5003;68550;-26.480;29.234;2023-07-02T14:32:28;234;214;
79141;PMS5003;68550;-26.480;29.234;2023-07-02T14:34:53;221;205;
79141;PMS5003;68550;-26.480;29.234;2023-07-02T14:37:19;229;214;
79141;PMS5003;68550;-26.480;29.234;2023-07-02T14:39:45;222;203;
79141;PMS5003;68550;-26.480;29.234;2023-07-02T14:42:10;219;208;
79141;PMS5003;68550;-26.480;29.234;2023-07-02T14:44:35;222;216;
79141;PMS5003;68550;-26.480;29.234;2023-07-02T14:47:00;210;196;
79141;PMS5003;68550;-26.480;29.234;2023-07-02T14:49:26;199;194;
79141;PMS5003;68550;-26.480;29.234;2023-07-02T14:51:52;210;192;
79141;PMS5003;68550;-26.480;29.234;2023-07-02T14:54:18;209;194;
79141;PMS5003;68550;-26.480;29.234;2023-07-02T14:56:43;209;193;
79141;PMS5003;68550;-26.480;29.234;2023-07-02T14:59:09;200;185;
79141;PMS5003;68550;-26.480;29.234;2023-07-02T15:01:34;202;191;
79141;PMS5003;68550;-26.480;29.234;2023-07-02T15:04:00;196;190;
79141;PMS5003;68550;-26.480;29.234;2023-07-02T15:06:27;189;182;
79141;PMS5003;68550;-26.480;29.234;2023-07-02T15:08:50;183;177;
79141;PMS5003;68550;-26.480;29.234;2023-07-02T15:11:15;202;186;
79141;PMS5003;68550;-26.480;29.234;2023-07-02T15:13:41;193;183;
79141;PMS5003;68550;-26.480;29.234;2023-07-02T15:16:06;186;178;
79141;PMS5003;68550;-26.480;29.234;2023-07-02T15:18:31;176;171;
79141;PMS5003;68550;-26.480;29.234;2023-07-02T15:20:57;180;169;
79141;PMS5003;68550;-26.480;29.234;2023-07-02T15:23:22;177;163;
79141;PMS5003;68550;-26.480;29.234;2023-07-02T15:25:50;176;165;
79141;PMS5003;68550;-26.480;29.234;2023-07-02T15:28:13;189;172;
79141;PMS5003;68550;-26.480;29.234;2023-07-02T15:30:39;174;164;
79141;PMS5003;68550;-26.480;29.234;2023-07-02T15:33:04;169;160;